Terminal Aerodrome Forecast
Issued by NWS Charleston, WV

Current Version | Previous Version | Graphics & Text | Print | Product List | Glossary On
Versions: 1 2 3 4 5 6 7 8 9 10 11 12 13 14 15 16 17 18 19 20 21 22 23 24 25 26 27 28
000
FTUS41 KRLX 231729
TAFPKB
TAF
KPKB 231729Z 2318/2418 24008KT P6SM BKN040
     FM232000 24008KT P6SM VCTS BKN035CB
      TEMPO 2321/2324 4SM +TSRA OVC025CB
     FM240700 00000KT P6SM BKN010
     FM241100 00000KT 6SM BR SCT003 BKN015
     FM241400 24004KT P6SM SCT250=

USA.gov is the U.S. government's official web portal to all federal, state and local government web resources and services.